EZY11BK LKPR-LBSF
Flight info
| Callsign | EZY11BK |
|---|---|
| Flight time | 1h 38m |
| Altitude | 37000 |
| Route | VOZ DCT PISAM DCT STO DCT BABIT DCT RAVAK DCT NISVA |
| Aircraft | B736/M-SDE2E3FGHIRWXY/LB1 |
Departure
| Time | 2026-05-04 13:25 |
|---|---|
| Airport | Václav Havel Airport Prague (LKPR) |
Arrival
| Time | 2026-05-04 15:04 |
|---|---|
| Airport | Sofia Airport (LBSF) |
| Time | Latitude | Longitude | Altitude | Speed | Heading |
|---|---|---|---|---|---|
| 2026-05-04 13:00 | 50.10943 | 14.26294 | 1169 ft | 0 kts | 124° |
| 2026-05-04 13:18 | 50.10940 | 14.26300 | 1172 ft | 2 kts | 124° |
| 2026-05-04 13:18 | 50.10929 | 14.26325 | 1168 ft | 3 kts | 124° |
| 2026-05-04 13:18 | 50.10912 | 14.26351 | 1173 ft | 4 kts | 160° |
| 2026-05-04 13:18 | 50.10881 | 14.26337 | 1171 ft | 6 kts | 211° |
| 2026-05-04 13:19 | 50.10831 | 14.26285 | 1170 ft | 11 kts | 214° |
| 2026-05-04 13:19 | 50.10787 | 14.26237 | 1171 ft | 12 kts | 214° |
| 2026-05-04 13:19 | 50.10685 | 14.26129 | 1170 ft | 14 kts | 214° |
| 2026-05-04 13:19 | 50.10600 | 14.26045 | 1168 ft | 15 kts | 210° |
| 2026-05-04 13:20 | 50.10506 | 14.25981 | 1174 ft | 15 kts | 161° |
| 2026-05-04 13:20 | 50.10439 | 14.26101 | 1175 ft | 14 kts | 127° |
| 2026-05-04 13:20 | 50.10379 | 14.26226 | 1175 ft | 15 kts | 127° |
| 2026-05-04 13:20 | 50.10314 | 14.26360 | 1175 ft | 16 kts | 126° |
| 2026-05-04 13:21 | 50.10242 | 14.26508 | 1176 ft | 18 kts | 126° |
| 2026-05-04 13:21 | 50.10165 | 14.26668 | 1177 ft | 19 kts | 126° |
| 2026-05-04 13:21 | 50.10114 | 14.26775 | 1182 ft | 18 kts | 127° |
| 2026-05-04 13:21 | 50.10038 | 14.26930 | 1192 ft | 18 kts | 127° |
| 2026-05-04 13:22 | 50.09965 | 14.27080 | 1197 ft | 17 kts | 127° |
| 2026-05-04 13:22 | 50.09895 | 14.27225 | 1201 ft | 16 kts | 127° |
| 2026-05-04 13:22 | 50.09797 | 14.27397 | 1203 ft | 16 kts | 135° |
| 2026-05-04 13:22 | 50.09745 | 14.27476 | 1205 ft | 16 kts | 135° |
| 2026-05-04 13:23 | 50.09666 | 14.27600 | 1207 ft | 17 kts | 135° |
| 2026-05-04 13:23 | 50.09576 | 14.27737 | 1210 ft | 20 kts | 135° |
| 2026-05-04 13:23 | 50.09477 | 14.27889 | 1214 ft | 20 kts | 135° |
| 2026-05-04 13:23 | 50.09374 | 14.28047 | 1213 ft | 22 kts | 135° |
| 2026-05-04 13:24 | 50.09259 | 14.28223 | 1212 ft | 24 kts | 135° |
| 2026-05-04 13:24 | 50.09180 | 14.28286 | 1210 ft | 4 kts | 187° |
| 2026-05-04 13:24 | 50.09149 | 14.28267 | 1210 ft | 9 kts | 210° |
| 2026-05-04 13:25 | 50.09225 | 14.27792 | 1210 ft | 72 kts | 307° |
| 2026-05-04 13:25 | 50.09701 | 14.26818 | 1217 ft | 149 kts | 308° |
| 2026-05-04 13:25 | 50.10389 | 14.25435 | 1885 ft | 162 kts | 307° |
| 2026-05-04 13:25 | 50.11050 | 14.24059 | 2910 ft | 158 kts | 305° |
| 2026-05-04 13:26 | 50.11696 | 14.22690 | 3819 ft | 155 kts | 306° |
| 2026-05-04 13:26 | 50.12341 | 14.21341 | 4661 ft | 159 kts | 305° |
| 2026-05-04 13:26 | 50.13048 | 14.19861 | 5141 ft | 187 kts | 305° |
| 2026-05-04 13:26 | 50.13885 | 14.18114 | 5409 ft | 219 kts | 305° |
| 2026-05-04 13:27 | 50.14673 | 14.15944 | 5767 ft | 241 kts | 281° |
| 2026-05-04 13:27 | 50.14487 | 14.13361 | 6470 ft | 245 kts | 245° |
| 2026-05-04 13:27 | 50.13418 | 14.11340 | 7282 ft | 245 kts | 216° |
| 2026-05-04 13:27 | 50.11819 | 14.10387 | 8048 ft | 251 kts | 188° |
| 2026-05-04 13:28 | 50.10093 | 14.10817 | 8792 ft | 258 kts | 159° |
| 2026-05-04 13:28 | 50.08567 | 14.12363 | 9536 ft | 264 kts | 144° |
| 2026-05-04 13:28 | 50.07165 | 14.14261 | 10188 ft | 269 kts | 141° |
| 2026-05-04 13:28 | 50.05777 | 14.16247 | 10829 ft | 272 kts | 141° |
| 2026-05-04 13:29 | 50.04376 | 14.18255 | 11449 ft | 275 kts | 141° |
| 2026-05-04 13:29 | 50.02956 | 14.20270 | 12062 ft | 278 kts | 141° |
| 2026-05-04 13:29 | 50.01517 | 14.22289 | 12668 ft | 280 kts | 142° |
| 2026-05-04 13:29 | 50.00076 | 14.24294 | 13250 ft | 283 kts | 142° |
| 2026-05-04 13:30 | 49.98597 | 14.26337 | 13829 ft | 286 kts | 142° |
| 2026-05-04 13:30 | 49.97101 | 14.28393 | 14350 ft | 288 kts | 142° |
| 2026-05-04 13:30 | 49.95594 | 14.30458 | 14883 ft | 290 kts | 142° |
| 2026-05-04 13:30 | 49.94074 | 14.32534 | 15392 ft | 292 kts | 142° |
| 2026-05-04 13:31 | 49.92542 | 14.34622 | 15897 ft | 295 kts | 142° |
| 2026-05-04 13:31 | 49.90990 | 14.36732 | 16398 ft | 299 kts | 142° |
| 2026-05-04 13:31 | 49.89373 | 14.38923 | 16555 ft | 320 kts | 142° |
| 2026-05-04 13:31 | 49.87628 | 14.41279 | 16715 ft | 345 kts | 142° |
| 2026-05-04 13:32 | 49.85758 | 14.43806 | 17008 ft | 366 kts | 142° |
| 2026-05-04 13:32 | 49.83818 | 14.46431 | 17656 ft | 375 kts | 142° |
| 2026-05-04 13:32 | 49.81848 | 14.49102 | 18498 ft | 377 kts | 142° |
| 2026-05-04 13:32 | 49.79867 | 14.51783 | 19217 ft | 380 kts | 142° |
| 2026-05-04 13:33 | 49.77857 | 14.54497 | 19917 ft | 384 kts | 142° |
| 2026-05-04 13:33 | 49.75830 | 14.57229 | 20593 ft | 389 kts | 142° |
| 2026-05-04 13:33 | 49.73776 | 14.59993 | 21279 ft | 393 kts | 142° |
| 2026-05-04 13:33 | 49.71698 | 14.62786 | 21988 ft | 397 kts | 141° |
| 2026-05-04 13:34 | 49.69603 | 14.65599 | 22685 ft | 401 kts | 141° |
| 2026-05-04 13:34 | 49.67508 | 14.68409 | 23357 ft | 405 kts | 141° |
| 2026-05-04 13:34 | 49.65368 | 14.71274 | 23953 ft | 409 kts | 141° |
| 2026-05-04 13:34 | 49.63195 | 14.74181 | 24503 ft | 414 kts | 141° |
| 2026-05-04 13:35 | 49.61005 | 14.77107 | 25052 ft | 418 kts | 141° |
| 2026-05-04 13:35 | 49.56589 | 14.82998 | 26127 ft | 426 kts | 141° |
| 2026-05-04 13:35 | 49.54333 | 14.85990 | 26655 ft | 430 kts | 142° |
| 2026-05-04 13:36 | 49.51906 | 14.88690 | 27162 ft | 431 kts | 152° |
| 2026-05-04 13:36 | 49.49260 | 14.90906 | 27676 ft | 434 kts | 155° |
| 2026-05-04 13:36 | 49.46568 | 14.93045 | 28165 ft | 438 kts | 155° |
| 2026-05-04 13:36 | 49.43839 | 14.95189 | 28634 ft | 442 kts | 155° |
| 2026-05-04 13:37 | 49.41088 | 14.97359 | 29112 ft | 446 kts | 155° |
| 2026-05-04 13:37 | 49.38323 | 14.99557 | 29580 ft | 449 kts | 155° |
| 2026-05-04 13:37 | 49.35540 | 15.01785 | 30035 ft | 453 kts | 155° |
| 2026-05-04 13:37 | 49.32737 | 15.04038 | 30412 ft | 456 kts | 155° |
| 2026-05-04 13:38 | 49.29922 | 15.06305 | 30809 ft | 458 kts | 155° |
| 2026-05-04 13:38 | 49.27090 | 15.08584 | 31197 ft | 460 kts | 155° |
| 2026-05-04 13:38 | 49.24282 | 15.10842 | 31576 ft | 462 kts | 155° |
| 2026-05-04 13:38 | 49.21439 | 15.13125 | 32054 ft | 461 kts | 155° |
| 2026-05-04 13:39 | 49.18601 | 15.15401 | 32572 ft | 459 kts | 155° |
| 2026-05-04 13:39 | 49.15770 | 15.17667 | 33004 ft | 460 kts | 155° |
| 2026-05-04 13:39 | 49.12925 | 15.19940 | 33425 ft | 460 kts | 155° |
| 2026-05-04 13:39 | 49.10091 | 15.22201 | 33854 ft | 459 kts | 155° |
| 2026-05-04 13:40 | 49.07266 | 15.24453 | 34249 ft | 458 kts | 155° |
| 2026-05-04 13:40 | 49.04444 | 15.26699 | 34609 ft | 457 kts | 155° |
| 2026-05-04 13:40 | 49.01623 | 15.28941 | 34972 ft | 456 kts | 155° |
| 2026-05-04 13:40 | 48.98811 | 15.31174 | 35335 ft | 455 kts | 155° |
| 2026-05-04 13:41 | 48.96006 | 15.33399 | 35677 ft | 454 kts | 155° |
| 2026-05-04 13:41 | 48.93203 | 15.35619 | 36029 ft | 453 kts | 155° |
| 2026-05-04 13:41 | 48.90410 | 15.37860 | 36364 ft | 454 kts | 153° |
| 2026-05-04 13:42 | 48.85406 | 15.43656 | 36962 ft | 457 kts | 141° |
| 2026-05-04 13:42 | 48.82999 | 15.46937 | 36951 ft | 460 kts | 140° |
| 2026-05-04 13:42 | 48.78287 | 15.53391 | 36963 ft | 458 kts | 140° |
| 2026-05-04 13:43 | 48.73542 | 15.59791 | 36967 ft | 455 kts | 141° |
| 2026-05-04 13:43 | 48.68800 | 15.66113 | 36968 ft | 454 kts | 141° |
| 2026-05-04 13:44 | 48.64054 | 15.72410 | 36968 ft | 453 kts | 141° |
| 2026-05-04 13:44 | 48.59330 | 15.78665 | 36965 ft | 454 kts | 141° |
| 2026-05-04 13:45 | 48.54578 | 15.84944 | 36964 ft | 454 kts | 141° |
| 2026-05-04 13:45 | 48.49808 | 15.91233 | 36966 ft | 456 kts | 141° |
| 2026-05-04 13:46 | 48.45021 | 15.97529 | 36962 ft | 457 kts | 141° |
| 2026-05-04 13:46 | 48.40200 | 16.03819 | 36958 ft | 459 kts | 142° |
| 2026-05-04 13:47 | 48.35312 | 16.09913 | 36964 ft | 459 kts | 142° |
| 2026-05-04 13:47 | 48.30359 | 16.15999 | 36965 ft | 460 kts | 142° |
| 2026-05-04 13:48 | 48.25406 | 16.22093 | 36970 ft | 460 kts | 142° |
| 2026-05-04 13:48 | 48.20452 | 16.28199 | 36976 ft | 460 kts | 142° |
| 2026-05-04 13:49 | 48.15499 | 16.34296 | 36983 ft | 460 kts | 142° |
| 2026-05-04 13:49 | 48.10581 | 16.40334 | 36993 ft | 459 kts | 142° |
| 2026-05-04 13:50 | 48.05636 | 16.46390 | 36990 ft | 459 kts | 142° |
| 2026-05-04 13:50 | 48.00693 | 16.52428 | 36995 ft | 459 kts | 142° |
| 2026-05-04 13:51 | 47.95742 | 16.58458 | 36989 ft | 458 kts | 142° |
| 2026-05-04 13:51 | 47.90792 | 16.64473 | 36982 ft | 458 kts | 142° |
| 2026-05-04 13:52 | 47.83372 | 16.73460 | 36982 ft | 458 kts | 142° |
| 2026-05-04 13:53 | 47.78417 | 16.79443 | 36984 ft | 458 kts | 142° |
| 2026-05-04 13:53 | 47.73457 | 16.85416 | 36987 ft | 459 kts | 142° |
| 2026-05-04 13:54 | 47.66044 | 16.94316 | 37000 ft | 459 kts | 142° |
| 2026-05-04 13:55 | 47.58580 | 17.03243 | 37008 ft | 459 kts | 142° |
| 2026-05-04 13:55 | 47.51105 | 17.12149 | 37035 ft | 459 kts | 142° |
| 2026-05-04 13:56 | 47.46116 | 17.18074 | 37034 ft | 460 kts | 142° |
| 2026-05-04 13:57 | 47.38616 | 17.26955 | 37042 ft | 460 kts | 142° |
| 2026-05-04 13:58 | 47.28629 | 17.38728 | 37048 ft | 461 kts | 142° |
| 2026-05-04 13:58 | 47.21099 | 17.47567 | 37048 ft | 461 kts | 142° |
| 2026-05-04 13:59 | 47.16071 | 17.53449 | 37046 ft | 462 kts | 142° |
| 2026-05-04 14:00 | 47.08560 | 17.62211 | 37054 ft | 462 kts | 142° |
| 2026-05-04 14:00 | 47.01010 | 17.70985 | 37056 ft | 461 kts | 142° |
| 2026-05-04 14:01 | 46.95978 | 17.76816 | 37071 ft | 460 kts | 142° |
| 2026-05-04 14:02 | 46.88439 | 17.85523 | 37051 ft | 459 kts | 142° |
| 2026-05-04 14:02 | 46.83422 | 17.91300 | 37068 ft | 458 kts | 142° |
| 2026-05-04 14:03 | 46.78443 | 17.97018 | 37075 ft | 458 kts | 142° |
| 2026-05-04 14:03 | 46.73432 | 18.02760 | 37062 ft | 458 kts | 142° |
| 2026-05-04 14:04 | 46.65915 | 18.11348 | 37067 ft | 458 kts | 142° |
| 2026-05-04 14:04 | 46.60900 | 18.17059 | 37065 ft | 457 kts | 142° |
| 2026-05-04 14:05 | 46.53378 | 18.25600 | 37064 ft | 457 kts | 142° |
| 2026-05-04 14:06 | 46.48358 | 18.31283 | 37064 ft | 457 kts | 142° |
| 2026-05-04 14:06 | 46.43339 | 18.36952 | 37074 ft | 458 kts | 142° |
| 2026-05-04 14:07 | 46.38308 | 18.42620 | 37069 ft | 458 kts | 142° |
| 2026-05-04 14:07 | 46.33262 | 18.48292 | 37070 ft | 458 kts | 142° |
| 2026-05-04 14:08 | 46.29069 | 18.52993 | 37065 ft | 459 kts | 142° |
| 2026-05-04 14:08 | 46.23206 | 18.59554 | 37068 ft | 459 kts | 142° |
| 2026-05-04 14:09 | 46.15619 | 18.68017 | 37064 ft | 459 kts | 142° |
| 2026-05-04 14:10 | 46.08882 | 18.75505 | 37066 ft | 459 kts | 142° |
| 2026-05-04 14:10 | 46.03817 | 18.81120 | 37066 ft | 459 kts | 142° |
| 2026-05-04 14:11 | 45.98751 | 18.86725 | 37067 ft | 459 kts | 142° |
| 2026-05-04 14:11 | 45.91200 | 18.95218 | 37073 ft | 459 kts | 139° |
| 2026-05-04 14:12 | 45.86395 | 19.01277 | 37074 ft | 459 kts | 137° |
| 2026-05-04 14:13 | 45.79245 | 19.10442 | 37083 ft | 460 kts | 137° |
| 2026-05-04 14:13 | 45.74447 | 19.16511 | 37076 ft | 460 kts | 137° |
| 2026-05-04 14:14 | 45.69653 | 19.22531 | 37076 ft | 461 kts | 137° |
| 2026-05-04 14:14 | 45.62406 | 19.31597 | 37079 ft | 461 kts | 137° |
| 2026-05-04 14:15 | 45.52716 | 19.43671 | 37083 ft | 462 kts | 137° |
| 2026-05-04 14:16 | 45.45431 | 19.52713 | 37083 ft | 463 kts | 137° |
| 2026-05-04 14:17 | 45.38169 | 19.61693 | 37084 ft | 463 kts | 137° |
| 2026-05-04 14:18 | 45.30857 | 19.70704 | 37088 ft | 463 kts | 137° |
| 2026-05-04 14:19 | 45.21106 | 19.82670 | 37097 ft | 463 kts | 137° |
| 2026-05-04 14:19 | 45.16218 | 19.88648 | 37094 ft | 463 kts | 137° |
| 2026-05-04 14:20 | 45.11333 | 19.94607 | 37090 ft | 463 kts | 137° |
| 2026-05-04 14:20 | 45.06488 | 20.00504 | 37099 ft | 462 kts | 137° |
| 2026-05-04 14:21 | 44.99171 | 20.09384 | 37104 ft | 462 kts | 137° |
| 2026-05-04 14:21 | 44.94289 | 20.15292 | 37103 ft | 461 kts | 137° |
| 2026-05-04 14:22 | 44.89408 | 20.21185 | 37105 ft | 461 kts | 137° |
| 2026-05-04 14:22 | 44.84532 | 20.27058 | 37102 ft | 461 kts | 137° |
| 2026-05-04 14:23 | 44.77232 | 20.35826 | 37106 ft | 462 kts | 137° |
| 2026-05-04 14:24 | 44.72336 | 20.41689 | 37106 ft | 463 kts | 137° |
| 2026-05-04 14:24 | 44.67425 | 20.47556 | 37105 ft | 464 kts | 137° |
| 2026-05-04 14:25 | 44.62502 | 20.53425 | 37103 ft | 464 kts | 137° |
| 2026-05-04 14:25 | 44.55099 | 20.62225 | 37110 ft | 466 kts | 137° |
| 2026-05-04 14:26 | 44.50130 | 20.68114 | 37105 ft | 466 kts | 137° |
| 2026-05-04 14:26 | 44.45168 | 20.73981 | 37101 ft | 467 kts | 137° |
| 2026-05-04 14:27 | 44.40233 | 20.79803 | 37104 ft | 467 kts | 137° |
| 2026-05-04 14:27 | 44.35262 | 20.85654 | 37108 ft | 467 kts | 138° |
| 2026-05-04 14:28 | 44.30289 | 20.91494 | 37107 ft | 467 kts | 138° |
| 2026-05-04 14:28 | 44.25315 | 20.97322 | 37103 ft | 466 kts | 137° |
| 2026-05-04 14:29 | 44.15406 | 21.08893 | 37102 ft | 465 kts | 138° |
| 2026-05-04 14:30 | 44.10447 | 21.14664 | 37107 ft | 464 kts | 138° |
| 2026-05-04 14:31 | 44.03020 | 21.23284 | 37107 ft | 463 kts | 138° |
| 2026-05-04 14:32 | 43.93120 | 21.34727 | 37105 ft | 462 kts | 138° |
| 2026-05-04 14:32 | 43.88174 | 21.40426 | 37109 ft | 462 kts | 138° |
| 2026-05-04 14:33 | 43.83260 | 21.46075 | 37105 ft | 462 kts | 138° |
| 2026-05-04 14:33 | 43.78309 | 21.51755 | 37104 ft | 462 kts | 138° |
| 2026-05-04 14:34 | 43.73354 | 21.57428 | 37109 ft | 462 kts | 138° |
| 2026-05-04 14:34 | 43.68449 | 21.63176 | 37101 ft | 461 kts | 133° |
| 2026-05-04 14:35 | 43.64293 | 21.69848 | 37106 ft | 458 kts | 127° |
| 2026-05-04 14:35 | 43.60282 | 21.76680 | 37106 ft | 458 kts | 126° |
| 2026-05-04 14:35 | 43.58264 | 21.80093 | 36949 ft | 461 kts | 127° |
| 2026-05-04 14:36 | 43.56218 | 21.83528 | 36334 ft | 464 kts | 127° |
| 2026-05-04 14:36 | 43.54168 | 21.86944 | 35654 ft | 462 kts | 127° |
| 2026-05-04 14:36 | 43.52116 | 21.90347 | 34900 ft | 462 kts | 126° |
| 2026-05-04 14:36 | 43.50059 | 21.93749 | 34150 ft | 463 kts | 126° |
| 2026-05-04 14:37 | 43.48006 | 21.97138 | 33520 ft | 458 kts | 126° |
| 2026-05-04 14:37 | 43.45979 | 22.00479 | 32959 ft | 452 kts | 127° |
| 2026-05-04 14:37 | 43.43973 | 22.03783 | 32418 ft | 446 kts | 127° |
| 2026-05-04 14:37 | 43.41999 | 22.07033 | 31891 ft | 441 kts | 127° |
| 2026-05-04 14:38 | 43.40044 | 22.10249 | 31373 ft | 435 kts | 128° |
| 2026-05-04 14:38 | 43.38134 | 22.13389 | 30878 ft | 430 kts | 128° |
| 2026-05-04 14:38 | 43.36223 | 22.16527 | 30384 ft | 425 kts | 129° |
| 2026-05-04 14:38 | 43.34335 | 22.19625 | 29841 ft | 420 kts | 129° |
| 2026-05-04 14:39 | 43.32469 | 22.22681 | 29332 ft | 414 kts | 129° |
| 2026-05-04 14:39 | 43.30635 | 22.25683 | 28826 ft | 408 kts | 129° |
| 2026-05-04 14:39 | 43.28826 | 22.28642 | 28341 ft | 402 kts | 130° |
| 2026-05-04 14:40 | 43.25272 | 22.34443 | 27366 ft | 392 kts | 130° |
| 2026-05-04 14:40 | 43.23525 | 22.37291 | 26889 ft | 388 kts | 130° |
| 2026-05-04 14:40 | 43.21794 | 22.40110 | 26410 ft | 384 kts | 130° |
| 2026-05-04 14:40 | 43.20081 | 22.42898 | 25955 ft | 380 kts | 130° |
| 2026-05-04 14:41 | 43.18382 | 22.45660 | 25485 ft | 377 kts | 130° |
| 2026-05-04 14:41 | 43.16699 | 22.48392 | 25038 ft | 373 kts | 130° |
| 2026-05-04 14:41 | 43.13371 | 22.53787 | 24153 ft | 368 kts | 130° |
| 2026-05-04 14:42 | 43.10087 | 22.59102 | 23193 ft | 364 kts | 130° |
| 2026-05-04 14:42 | 43.08456 | 22.61737 | 22711 ft | 361 kts | 129° |
| 2026-05-04 14:42 | 43.06842 | 22.64343 | 22278 ft | 357 kts | 129° |
| 2026-05-04 14:43 | 43.05242 | 22.66924 | 21833 ft | 354 kts | 129° |
| 2026-05-04 14:43 | 43.03659 | 22.69478 | 21398 ft | 351 kts | 128° |
| 2026-05-04 14:43 | 43.02104 | 22.71986 | 20972 ft | 349 kts | 128° |
| 2026-05-04 14:43 | 43.00540 | 22.74505 | 20549 ft | 347 kts | 128° |
| 2026-05-04 14:44 | 42.98982 | 22.77008 | 20125 ft | 345 kts | 128° |
| 2026-05-04 14:44 | 42.97433 | 22.79498 | 19698 ft | 343 kts | 127° |
| 2026-05-04 14:44 | 42.96035 | 22.82114 | 19272 ft | 339 kts | 120° |
| 2026-05-04 14:44 | 42.94807 | 22.84843 | 18859 ft | 336 kts | 118° |
| 2026-05-04 14:45 | 42.93608 | 22.87585 | 18445 ft | 335 kts | 118° |
| 2026-05-04 14:45 | 42.92391 | 22.90304 | 17955 ft | 335 kts | 118° |
| 2026-05-04 14:45 | 42.91159 | 22.92994 | 17501 ft | 333 kts | 119° |
| 2026-05-04 14:45 | 42.90343 | 22.94758 | 17217 ft | 332 kts | 119° |
| 2026-05-04 14:46 | 42.89714 | 22.96122 | 16993 ft | 330 kts | 118° |
| 2026-05-04 14:46 | 42.88869 | 22.98843 | 16588 ft | 321 kts | 98° |
| 2026-05-04 14:46 | 42.88609 | 23.01931 | 16240 ft | 314 kts | 91° |
| 2026-05-04 14:46 | 42.88476 | 23.04848 | 16120 ft | 302 kts | 91° |
| 2026-05-04 14:47 | 42.88344 | 23.07597 | 15964 ft | 286 kts | 91° |
| 2026-05-04 14:47 | 42.88204 | 23.10215 | 15844 ft | 270 kts | 91° |
| 2026-05-04 14:47 | 42.88064 | 23.12724 | 15742 ft | 260 kts | 91° |
| 2026-05-04 14:47 | 42.87927 | 23.15130 | 15678 ft | 250 kts | 91° |
| 2026-05-04 14:48 | 42.87793 | 23.17492 | 15578 ft | 250 kts | 91° |
| 2026-05-04 14:48 | 42.87590 | 23.19853 | 15471 ft | 253 kts | 103° |
| 2026-05-04 14:48 | 42.86716 | 23.21958 | 15350 ft | 261 kts | 129° |
| 2026-05-04 14:48 | 42.85165 | 23.23327 | 15108 ft | 276 kts | 158° |
| 2026-05-04 14:49 | 42.83234 | 23.23600 | 14862 ft | 283 kts | 181° |
| 2026-05-04 14:49 | 42.81365 | 23.22751 | 14557 ft | 288 kts | 213° |
| 2026-05-04 14:49 | 42.80008 | 23.20801 | 14278 ft | 284 kts | 242° |
| 2026-05-04 14:49 | 42.79419 | 23.18290 | 14012 ft | 276 kts | 268° |
| 2026-05-04 14:50 | 42.79472 | 23.15706 | 13749 ft | 272 kts | 278° |
| 2026-05-04 14:50 | 42.79641 | 23.13177 | 13442 ft | 272 kts | 279° |
| 2026-05-04 14:50 | 42.79807 | 23.10614 | 13168 ft | 271 kts | 278° |
| 2026-05-04 14:50 | 42.79963 | 23.08049 | 12891 ft | 270 kts | 278° |
| 2026-05-04 14:51 | 42.80113 | 23.05508 | 12635 ft | 269 kts | 278° |
| 2026-05-04 14:51 | 42.80261 | 23.02968 | 12374 ft | 268 kts | 278° |
| 2026-05-04 14:51 | 42.80407 | 23.00439 | 12112 ft | 268 kts | 278° |
| 2026-05-04 14:51 | 42.80551 | 22.97910 | 11849 ft | 267 kts | 278° |
| 2026-05-04 14:52 | 42.80693 | 22.95394 | 11597 ft | 265 kts | 278° |
| 2026-05-04 14:52 | 42.80832 | 22.92900 | 11341 ft | 264 kts | 277° |
| 2026-05-04 14:52 | 42.80971 | 22.90413 | 11093 ft | 263 kts | 277° |
| 2026-05-04 14:52 | 42.81111 | 22.87917 | 10746 ft | 266 kts | 277° |
| 2026-05-04 14:53 | 42.81246 | 22.85457 | 10470 ft | 257 kts | 277° |
| 2026-05-04 14:53 | 42.81322 | 22.83858 | 10298 ft | 255 kts | 273° |
| 2026-05-04 14:53 | 42.80575 | 22.80841 | 9956 ft | 258 kts | 230° |
| 2026-05-04 14:53 | 42.79142 | 22.79431 | 9719 ft | 255 kts | 198° |
| 2026-05-04 14:54 | 42.77450 | 22.78938 | 9494 ft | 251 kts | 184° |
| 2026-05-04 14:54 | 42.75721 | 22.78906 | 9222 ft | 247 kts | 163° |
| 2026-05-04 14:54 | 42.74239 | 22.79936 | 9031 ft | 237 kts | 132° |
| 2026-05-04 14:54 | 42.73292 | 22.81722 | 8767 ft | 232 kts | 108° |
| 2026-05-04 14:55 | 42.72917 | 22.83826 | 8545 ft | 229 kts | 93° |
| 2026-05-04 14:55 | 42.72823 | 22.85996 | 8304 ft | 231 kts | 88° |
| 2026-05-04 14:55 | 42.72774 | 22.88182 | 8045 ft | 232 kts | 89° |
| 2026-05-04 14:55 | 42.72688 | 22.90360 | 7782 ft | 229 kts | 91° |
| 2026-05-04 14:56 | 42.72577 | 22.92497 | 7543 ft | 221 kts | 90° |
| 2026-05-04 14:56 | 42.72459 | 22.94548 | 7322 ft | 215 kts | 90° |
| 2026-05-04 14:56 | 42.72382 | 22.95879 | 7168 ft | 212 kts | 91° |
| 2026-05-04 14:56 | 42.72265 | 22.97867 | 6943 ft | 210 kts | 91° |
| 2026-05-04 14:57 | 42.72148 | 22.99847 | 6718 ft | 211 kts | 91° |
| 2026-05-04 14:57 | 42.72029 | 23.01825 | 6509 ft | 209 kts | 91° |
| 2026-05-04 14:57 | 42.71913 | 23.03764 | 6237 ft | 202 kts | 91° |
| 2026-05-04 14:57 | 42.71802 | 23.05621 | 6046 ft | 193 kts | 90° |
| 2026-05-04 14:58 | 42.71692 | 23.07447 | 5854 ft | 194 kts | 91° |
| 2026-05-04 14:58 | 42.71585 | 23.09279 | 5638 ft | 192 kts | 91° |
| 2026-05-04 14:58 | 42.71476 | 23.11061 | 5437 ft | 186 kts | 92° |
| 2026-05-04 14:58 | 42.71375 | 23.12781 | 5236 ft | 178 kts | 91° |
| 2026-05-04 14:59 | 42.71276 | 23.14446 | 5054 ft | 176 kts | 91° |
| 2026-05-04 14:59 | 42.71176 | 23.16096 | 4894 ft | 179 kts | 91° |
| 2026-05-04 14:59 | 42.70997 | 23.19538 | 4484 ft | 184 kts | 92° |
| 2026-05-04 15:00 | 42.70892 | 23.21269 | 4312 ft | 183 kts | 91° |
| 2026-05-04 15:00 | 42.70788 | 23.22937 | 4224 ft | 172 kts | 91° |
| 2026-05-04 15:00 | 42.70689 | 23.24550 | 4018 ft | 168 kts | 91° |
| 2026-05-04 15:01 | 42.70496 | 23.27678 | 3578 ft | 164 kts | 90° |
| 2026-05-04 15:01 | 42.70403 | 23.29226 | 3394 ft | 159 kts | 91° |
| 2026-05-04 15:01 | 42.70313 | 23.30667 | 3131 ft | 146 kts | 92° |
| 2026-05-04 15:01 | 42.70234 | 23.31975 | 2946 ft | 134 kts | 92° |
| 2026-05-04 15:02 | 42.70157 | 23.33269 | 2753 ft | 136 kts | 93° |
| 2026-05-04 15:02 | 42.70067 | 23.34562 | 2582 ft | 139 kts | 95° |
| 2026-05-04 15:02 | 42.69964 | 23.35898 | 2360 ft | 145 kts | 91° |
| 2026-05-04 15:02 | 42.69906 | 23.37250 | 2193 ft | 141 kts | 91° |
| 2026-05-04 15:03 | 42.69835 | 23.38598 | 1991 ft | 142 kts | 92° |
| 2026-05-04 15:03 | 42.69755 | 23.39933 | 1796 ft | 138 kts | 91° |
| 2026-05-04 15:03 | 42.69686 | 23.41159 | 1753 ft | 116 kts | 94° |
| 2026-05-04 15:03 | 42.69629 | 23.42063 | 1752 ft | 64 kts | 94° |
| 2026-05-04 15:04 | 42.69580 | 23.42533 | 1748 ft | 37 kts | 111° |
| 2026-05-04 15:04 | 42.69486 | 23.42746 | 1742 ft | 15 kts | 134° |
| 2026-05-04 15:04 | 42.69404 | 23.42710 | 1752 ft | 15 kts | 257° |
| 2026-05-04 15:04 | 42.69410 | 23.42573 | 1747 ft | 14 kts | 275° |
| 2026-05-04 15:05 | 42.69419 | 23.42430 | 1752 ft | 17 kts | 274° |
| 2026-05-04 15:05 | 42.69429 | 23.42256 | 1752 ft | 20 kts | 274° |
| 2026-05-04 15:05 | 42.69440 | 23.42050 | 1752 ft | 24 kts | 274° |
| 2026-05-04 15:05 | 42.69453 | 23.41814 | 1749 ft | 26 kts | 275° |
| 2026-05-04 15:06 | 42.69469 | 23.41554 | 1752 ft | 29 kts | 275° |
| 2026-05-04 15:06 | 42.69486 | 23.41291 | 1752 ft | 21 kts | 271° |
| 2026-05-04 15:06 | 42.69387 | 23.41196 | 1743 ft | 19 kts | 191° |
| 2026-05-04 15:07 | 42.69151 | 23.41128 | 1752 ft | 11 kts | 204° |
| 2026-05-04 15:07 | 42.69108 | 23.41057 | 1749 ft | 8 kts | 212° |
| 2026-05-04 15:07 | 42.69059 | 23.41079 | 1749 ft | 8 kts | 161° |
| 2026-05-04 15:07 | 42.69026 | 23.41093 | 1747 ft | 0 kts | 162° |